首页
METAR-TAF:

METAR-TAF

机场 :

斯科茨代爾, 亞利桑那州, 美国

纬度: 33-37-22N, 经度: 111-54-38W, 海拔: 460米

当前天气观测

该预报发布于1小时和10分钟前的03:53 UTC
风速3节,风向西
温度 32°C
湿度 11%
气压 1010 hPa
能見度: 16.1公里
天空无云

METAR: KSDL 190353Z AUTO 27003KT 10SM CLR 32/M02 A2982 RMK AO2 SLP070 T03171022

时间: 22:03 (05:03 UTC)

预报

该预报发布于5小时和38分钟前的23:25 UTC
预报有效从19日的 00点(UTC)到 19日的 24点(UTC)
风速10节,风向西转西南,有时为18节阵风
能見度: 10公里
天空无云
从 19日的 0200点(UTC)
风速6节,风向西
能見度: 10公里
天空无云
从 19日的 0500点(UTC)
风速3节,风向多变
能見度: 10公里
天空无云
从 19日的 1500点(UTC)
风速7节,风向南转南东
能見度: 10公里
天空无云
从 19日的 2000点(UTC)
风速8节,风向西转西南,有时为18节阵风
能見度: 10公里
天空无云

TAF: KSDL 182325Z 1900/1924 25010G18KT P6SM SKC FM190200 26006KT P6SM SKC FM190500 VRB03KT P6SM SKC FM191500 16007KT P6SM SKC FM192000 24008G18KT P6SM SKC

超过4000个机场的气象观测和天气预报(METAR&TAF报告)。

可查询的气象台以黄色和红色小点在地图上表示。

将鼠标移到小点上方,可查看气象台名称。

然后点击查看天气观测和预报。

如需切换地图:点击带黑十字的绿色按钮放大地图;点击带横线的绿色按钮缩小地图;或者点击绿色箭头查看邻近地区的地图。


METAR-TAF: